Time;durP1;ratioP1;P1;durP2;ratioP2;P2;SDS_P1;SDS_P2;PMS_P1;PMS_P2;Temp;Humidity;BMP_temperature;BMP_pressure;BME280_temperature;BME280_humidity;BME280_pressure;Samples;Min_cycle;Max_cycle;Signal;HPM_P1;HPM_P2
2020/01/28 00:00:06;;;;;;;10.1;4.55;;;;;;;5.84;75.05957;94192.94;;;;
2020/01/28 00:01:26;;;;;;;10.85;4.5;;;;;;;5.89;75.23535;94186.77;;;;
2020/01/28 00:02:44;;;;;;;10.85;4.5;;;;;;;5.89;75.23535;94186.77;;;;
2020/01/28 00:03:56;;;;;;;11.4;5.1;;;;;;;5.93;75.33887;94168.77;;;;
2020/01/28 00:05:02;;;;;;;11.4;5.1;;;;;;;5.93;75.33887;94168.77;;;;
2020/01/28 00:06:08;;;;;;;11.4;5.1;;;;;;;5.93;75.33887;94168.77;;;;
2020/01/28 00:07:15;;;;;;;9.349998;4.2;;;;;;;5.97;75.36719;94163.23;;;;
2020/01/28 00:08:20;;;;;;;9.349998;4.2;;;;;;;5.97;75.36719;94163.23;;;;
2020/01/28 00:09:20;;;;;;;9.9;4.65;;;;;;;5.99;75.47656;94148.13;;;;
2020/01/28 00:10:23;;;;;;;9.9;4.65;;;;;;;5.99;75.47656;94148.13;;;;
2020/01/28 00:11:23;;;;;;;9.9;4.65;;;;;;;5.99;75.47656;94148.13;;;;
2020/01/28 00:12:24;;;;;;;7.45;4;;;;;;;6.02;75.49316;94150.36;;;;
2020/01/28 00:13:24;;;;;;;7.45;4;;;;;;;6.02;75.49316;94150.36;;;;
2020/01/28 00:14:25;;;;;;;8.5;4.2;;;;;;;6.03;75.55859;94158.67;;;;
2020/01/28 00:15:25;;;;;;;8.5;4.2;;;;;;;6.03;75.55859;94158.67;;;;
2020/01/28 00:16:26;;;;;;;8.5;4.2;;;;;;;6.03;75.55859;94158.67;;;;
2020/01/28 00:17:26;;;;;;;8.5;4.2;;;;;;;6.03;75.55859;94158.67;;;;
2020/01/28 00:18:26;;;;;;;8.5;4.2;;;;;;;6.03;75.55859;94158.67;;;;
2020/01/28 00:19:28;;;;;;;8.5;4.2;;;;;;;6.03;75.55859;94158.67;;;;
2020/01/28 00:20:28;;;;;;;8.5;4.2;;;;;;;6.03;75.55859;94158.67;;;;
2020/01/28 00:21:28;;;;;;;8.5;4.2;;;;;;;6.03;75.55859;94158.67;;;;
2020/01/28 00:22:29;;;;;;;8.5;4.2;;;;;;;6.03;75.55859;94158.67;;;;
2020/01/28 00:23:29;;;;;;;8.5;4.2;;;;;;;6.03;75.55859;94158.67;;;;
2020/01/28 00:24:30;;;;;;;8.5;4.2;;;;;;;6.03;75.55859;94158.67;;;;
2020/01/28 00:25:30;;;;;;;8.45;4.649999;;;;;;;5.74;74.96582;94148.47;;;;
2020/01/28 00:26:31;;;;;;;8.45;4.649999;;;;;;;5.74;74.96582;94148.47;;;;
2020/01/28 00:27:31;;;;;;;8.45;4.649999;;;;;;;5.74;74.96582;94148.47;;;;
2020/01/28 00:28:32;;;;;;;10.1;4.55;;;;;;;5.74;75.5166;94144.08;;;;
2020/01/28 00:29:32;;;;;;;10.1;4.55;;;;;;;5.74;75.5166;94144.08;;;;
2020/01/28 00:30:33;;;;;;;9.150001;4.5;;;;;;;5.78;75.76758;94142.02;;;;
2020/01/28 00:31:33;;;;;;;9.150001;4.5;;;;;;;5.78;75.76758;94142.02;;;;
2020/01/28 00:32:34;;;;;;;9.150001;4.5;;;;;;;5.78;75.76758;94142.02;;;;
2020/01/28 00:33:34;;;;;;;9.650002;4.699999;;;;;;;5.83;75.91406;94131.98;;;;
2020/01/28 00:34:34;;;;;;;9.650002;4.699999;;;;;;;5.83;75.91406;94131.98;;;;
2020/01/28 00:35:35;;;;;;;9.650002;4.699999;;;;;;;5.83;75.91406;94131.98;;;;
2020/01/28 00:36:35;;;;;;;9.650002;4.699999;;;;;;;5.83;75.91406;94131.98;;;;
2020/01/28 00:37:36;;;;;;;9.650002;4.699999;;;;;;;5.83;75.91406;94131.98;;;;
2020/01/28 00:38:36;;;;;;;9.650002;4.699999;;;;;;;5.83;75.91406;94131.98;;;;
2020/01/28 00:39:37;;;;;;;9.650002;4.699999;;;;;;;5.83;75.91406;94131.98;;;;
2020/01/28 00:40:37;;;;;;;9.650002;4.699999;;;;;;;5.83;75.91406;94131.98;;;;
2020/01/28 00:41:38;;;;;;;9.650002;4.699999;;;;;;;5.83;75.91406;94131.98;;;;
2020/01/28 00:42:38;;;;;;;9.650002;4.699999;;;;;;;5.83;75.91406;94131.98;;;;
2020/01/28 00:43:38;;;;;;;9.449999;4.4;;;;;;;5.61;75.17773;94133.08;;;;
2020/01/28 00:44:39;;;;;;;9.449999;4.4;;;;;;;5.61;75.17773;94133.08;;;;
2020/01/28 00:45:39;;;;;;;9.449999;4.4;;;;;;;5.61;75.17773;94133.08;;;;
2020/01/28 00:46:40;;;;;;;11.5;5;;;;;;;5.61;75.76074;94121.41;;;;
2020/01/28 00:47:45;;;;;;;11.5;5;;;;;;;5.61;75.76074;94121.41;;;;
2020/01/28 00:52:08;;;;;;;11.6;5.5;;;;;;;5.7;76.36816;94107.54;;;;
2020/01/28 00:53:09;;;;;;;11.6;5.5;;;;;;;5.7;76.36816;94107.54;;;;
2020/01/28 00:54:09;;;;;;;11.6;5.5;;;;;;;5.7;76.36816;94107.54;;;;
2020/01/28 00:55:09;;;;;;;11.6;5.5;;;;;;;5.7;76.36816;94107.54;;;;
2020/01/28 00:56:10;;;;;;;11.6;5.5;;;;;;;5.7;76.36816;94107.54;;;;
2020/01/28 00:57:10;;;;;;;11.6;5.5;;;;;;;5.7;76.36816;94107.54;;;;
2020/01/28 00:58:11;;;;;;;11.6;5.5;;;;;;;5.7;76.36816;94107.54;;;;
2020/01/28 00:59:11;;;;;;;11.6;5.5;;;;;;;5.7;76.36816;94107.54;;;;
2020/01/28 01:00:12;;;;;;;11.6;5.5;;;;;;;5.7;76.36816;94107.54;;;;
2020/01/28 01:01:13;;;;;;;11.6;5.5;;;;;;;5.7;76.36816;94107.54;;;;
2020/01/28 01:02:13;;;;;;;12.45;5.6;;;;;;;5.43;75.54785;94081.38;;;;
2020/01/28 01:03:14;;;;;;;12.45;5.6;;;;;;;5.43;75.54785;94081.38;;;;
2020/01/28 01:04:15;;;;;;;12.45;5.6;;;;;;;5.43;75.54785;94081.38;;;;
2020/01/28 01:05:15;;;;;;;11.65;5.749999;;;;;;;5.41;76.33691;94077.74;;;;
2020/01/28 01:06:16;;;;;;;11.65;5.749999;;;;;;;5.41;76.33691;94077.74;;;;
2020/01/28 01:07:17;;;;;;;11.65;5.749999;;;;;;;5.41;76.33691;94077.74;;;;
2020/01/28 01:08:18;;;;;;;11.65;5.749999;;;;;;;5.41;76.33691;94077.74;;;;
2020/01/28 01:09:20;;;;;;;11.65;5.749999;;;;;;;5.41;76.33691;94077.74;;;;
2020/01/28 01:10:26;;;;;;;11.65;5.749999;;;;;;;5.41;76.33691;94077.74;;;;
2020/01/28 01:11:27;;;;;;;11.65;5.749999;;;;;;;5.41;76.33691;94077.74;;;;
2020/01/28 01:12:31;;;;;;;11.65;5.749999;;;;;;;5.41;76.33691;94077.74;;;;
2020/01/28 01:13:31;;;;;;;11.65;5.749999;;;;;;;5.41;76.33691;94077.74;;;;
2020/01/28 01:14:32;;;;;;;11.65;5.749999;;;;;;;5.41;76.33691;94077.74;;;;
2020/01/28 01:15:38;;;;;;;12.15;5.849999;;;;;;;5.1;76.0293;94047.74;;;;
2020/01/28 01:17:22;;;;;;;12.15;5.849999;;;;;;;5.1;76.0293;94047.74;;;;
2020/01/28 01:23:42;;;;;;;14;6.3;;;;;;;5.1;77.43359;94054.41;;;;
2020/01/28 01:24:43;;;;;;;14;6.3;;;;;;;5.1;77.43359;94054.41;;;;
2020/01/28 01:25:43;;;;;;;14;6.3;;;;;;;5.1;77.43359;94054.41;;;;
2020/01/28 01:28:52;;;;;;;14;6.3;;;;;;;5.1;77.43359;94054.41;;;;
2020/01/28 01:29:52;;;;;;;14;6.3;;;;;;;5.1;77.43359;94054.41;;;;
2020/01/28 01:30:53;;;;;;;14;6.3;;;;;;;5.1;77.43359;94054.41;;;;
2020/01/28 01:31:56;;;;;;;14;6.3;;;;;;;5.1;77.43359;94054.41;;;;
2020/01/28 01:32:57;;;;;;;14;6.3;;;;;;;5.1;77.43359;94054.41;;;;
2020/01/28 01:33:57;;;;;;;13.2;7.249999;;;;;;;4.83;76.81445;94046.55;;;;
2020/01/28 01:34:58;;;;;;;13.2;7.249999;;;;;;;4.83;76.81445;94046.55;;;;
2020/01/28 01:35:58;;;;;;;13.2;7.249999;;;;;;;4.83;76.81445;94046.55;;;;
2020/01/28 01:37:01;;;;;;;12;5.4;;;;;;;4.84;77.4707;94051.79;;;;
2020/01/28 01:38:01;;;;;;;12;5.4;;;;;;;4.84;77.4707;94051.79;;;;
2020/01/28 01:39:13;;;;;;;12;5.4;;;;;;;4.84;77.4707;94051.79;;;;
2020/01/28 01:40:13;;;;;;;12;5.4;;;;;;;4.84;77.4707;94051.79;;;;
2020/01/28 01:41:27;;;;;;;12;5.4;;;;;;;4.84;77.4707;94051.79;;;;
2020/01/28 01:42:28;;;;;;;12;5.4;;;;;;;4.84;77.4707;94051.79;;;;
2020/01/28 01:43:29;;;;;;;12;5.4;;;;;;;4.84;77.4707;94051.79;;;;
2020/01/28 01:44:29;;;;;;;12;5.4;;;;;;;4.84;77.4707;94051.79;;;;
2020/01/28 01:45:30;;;;;;;12;5.4;;;;;;;4.84;77.4707;94051.79;;;;
2020/01/28 01:46:30;;;;;;;12;5.4;;;;;;;4.84;77.4707;94051.79;;;;
2020/01/28 01:47:31;;;;;;;11.65;5.750001;;;;;;;4.72;76.82715;94019.68;;;;
2020/01/28 01:48:31;;;;;;;11.65;5.750001;;;;;;;4.72;76.82715;94019.68;;;;
2020/01/28 01:49:32;;;;;;;11.65;5.750001;;;;;;;4.72;76.82715;94019.68;;;;
2020/01/28 01:50:32;;;;;;;12.45;5.55;;;;;;;4.75;77.51855;94019.21;;;;
2020/01/28 01:51:36;;;;;;;12.45;5.55;;;;;;;4.75;77.51855;94019.21;;;;
2020/01/28 01:52:36;;;;;;;12.45;5.55;;;;;;;4.75;77.51855;94019.21;;;;
2020/01/28 01:53:37;;;;;;;12.45;5.55;;;;;;;4.75;77.51855;94019.21;;;;
2020/01/28 01:54:38;;;;;;;12.45;5.55;;;;;;;4.75;77.51855;94019.21;;;;
2020/01/28 01:55:38;;;;;;;12.45;5.55;;;;;;;4.75;77.51855;94019.21;;;;
2020/01/28 01:56:40;;;;;;;12.45;5.55;;;;;;;4.75;77.51855;94019.21;;;;
2020/01/28 01:57:41;;;;;;;12.45;5.55;;;;;;;4.75;77.51855;94019.21;;;;
2020/01/28 01:58:41;;;;;;;12.45;5.55;;;;;;;4.75;77.51855;94019.21;;;;
2020/01/28 01:59:42;;;;;;;12.45;5.55;;;;;;;4.75;77.51855;94019.21;;;;
2020/01/28 02:00:42;;;;;;;11.95;6;;;;;;;4.67;76.83984;93987.9;;;;
2020/01/28 02:01:45;;;;;;;11.95;6;;;;;;;4.67;76.83984;93987.9;;;;
2020/01/28 02:02:45;;;;;;;11.95;6;;;;;;;4.67;76.83984;93987.9;;;;
2020/01/28 02:07:20;;;;;;;11;5.85;;;;;;;4.69;77.56934;93977.37;;;;
2020/01/28 02:08:20;;;;;;;11;5.85;;;;;;;4.69;77.56934;93977.37;;;;
2020/01/28 02:09:21;;;;;;;11;5.85;;;;;;;4.69;77.56934;93977.37;;;;
2020/01/28 02:10:28;;;;;;;11;5.85;;;;;;;4.69;77.56934;93977.37;;;;
2020/01/28 02:11:29;;;;;;;11;5.85;;;;;;;4.69;77.56934;93977.37;;;;
2020/01/28 02:12:29;;;;;;;11;5.85;;;;;;;4.69;77.56934;93977.37;;;;
2020/01/28 02:13:30;;;;;;;11;5.85;;;;;;;4.69;77.56934;93977.37;;;;
2020/01/28 02:14:30;;;;;;;12.65;5.849999;;;;;;;4.48;77.0791;93957.5;;;;
2020/01/28 02:15:31;;;;;;;12.65;5.849999;;;;;;;4.48;77.0791;93957.5;;;;
2020/01/28 02:16:32;;;;;;;11.7;5.450001;;;;;;;4.49;77.94531;93957.78;;;;
2020/01/28 02:17:32;;;;;;;11.7;5.450001;;;;;;;4.49;77.94531;93957.78;;;;
2020/01/28 02:18:32;;;;;;;11.7;5.450001;;;;;;;4.49;77.94531;93957.78;;;;
2020/01/28 02:19:33;;;;;;;11.7;5.450001;;;;;;;4.49;77.94531;93957.78;;;;
2020/01/28 02:20:33;;;;;;;11.7;5.450001;;;;;;;4.49;77.94531;93957.78;;;;
2020/01/28 02:21:34;;;;;;;11.7;5.450001;;;;;;;4.49;77.94531;93957.78;;;;
2020/01/28 02:22:34;;;;;;;11.7;5.450001;;;;;;;4.49;77.94531;93957.78;;;;
2020/01/28 02:23:35;;;;;;;11.7;5.450001;;;;;;;4.49;77.94531;93957.78;;;;
2020/01/28 02:24:36;;;;;;;11.7;5.450001;;;;;;;4.49;77.94531;93957.78;;;;
2020/01/28 02:25:36;;;;;;;11.7;5.450001;;;;;;;4.49;77.94531;93957.78;;;;
2020/01/28 02:26:37;;;;;;;11.7;5.450001;;;;;;;4.49;77.94531;93957.78;;;;
2020/01/28 02:27:37;;;;;;;10.4;5.25;;;;;;;4.44;77.51465;93940.7;;;;
2020/01/28 02:28:38;;;;;;;10.4;5.25;;;;;;;4.44;77.51465;93940.7;;;;
2020/01/28 02:29:38;;;;;;;9.799999;5.1;;;;;;;4.49;78.16504;93948.02;;;;
2020/01/28 02:30:39;;;;;;;9.799999;5.1;;;;;;;4.49;78.16504;93948.02;;;;
2020/01/28 02:31:39;;;;;;;9.799999;5.1;;;;;;;4.49;78.16504;93948.02;;;;
2020/01/28 02:32:40;;;;;;;9.799999;5.1;;;;;;;4.49;78.16504;93948.02;;;;
2020/01/28 02:33:40;;;;;;;9.799999;5.1;;;;;;;4.49;78.16504;93948.02;;;;
2020/01/28 02:34:41;;;;;;;9.799999;5.1;;;;;;;4.49;78.16504;93948.02;;;;
2020/01/28 02:35:41;;;;;;;9.799999;5.1;;;;;;;4.49;78.16504;93948.02;;;;
2020/01/28 02:36:42;;;;;;;9.799999;5.1;;;;;;;4.49;78.16504;93948.02;;;;
2020/01/28 02:37:42;;;;;;;9.799999;5.1;;;;;;;4.49;78.16504;93948.02;;;;
2020/01/28 02:38:43;;;;;;;9.799999;5.1;;;;;;;4.49;78.16504;93948.02;;;;
2020/01/28 02:39:43;;;;;;;9.799999;5.1;;;;;;;4.49;78.16504;93948.02;;;;
2020/01/28 02:40:44;;;;;;;12.2;5.45;;;;;;;4.51;77.70801;93913.75;;;;
2020/01/28 02:41:44;;;;;;;12.2;5.45;;;;;;;4.51;77.70801;93913.75;;;;
2020/01/28 02:42:56;;;;;;;9.999999;5.599999;;;;;;;4.57;78.16992;93908.93;;;;
2020/01/28 02:43:57;;;;;;;9.999999;5.599999;;;;;;;4.57;78.16992;93908.93;;;;
2020/01/28 02:44:57;;;;;;;9.999999;5.599999;;;;;;;4.57;78.16992;93908.93;;;;
2020/01/28 02:45:58;;;;;;;9.999999;5.599999;;;;;;;4.57;78.16992;93908.93;;;;
2020/01/28 02:46:58;;;;;;;9.999999;5.599999;;;;;;;4.57;78.16992;93908.93;;;;
2020/01/28 02:47:59;;;;;;;9.999999;5.599999;;;;;;;4.57;78.16992;93908.93;;;;
2020/01/28 02:49:01;;;;;;;9.999999;5.599999;;;;;;;4.57;78.16992;93908.93;;;;
2020/01/28 02:50:01;;;;;;;9.999999;5.599999;;;;;;;4.57;78.16992;93908.93;;;;
2020/01/28 02:51:02;;;;;;;9.999999;5.599999;;;;;;;4.57;78.16992;93908.93;;;;
2020/01/28 02:52:02;;;;;;;9.999999;5.599999;;;;;;;4.57;78.16992;93908.93;;;;
2020/01/28 02:53:03;;;;;;;9.999999;5.599999;;;;;;;4.57;78.16992;93908.93;;;;
2020/01/28 02:54:03;;;;;;;12.15;5.6;;;;;;;4.57;77.52832;93919.48;;;;
2020/01/28 02:55:04;;;;;;;12.15;5.6;;;;;;;4.57;77.52832;93919.48;;;;
2020/01/28 02:56:06;;;;;;;9.550001;5.3;;;;;;;4.63;78.20215;93903.05;;;;
2020/01/28 02:57:06;;;;;;;9.550001;5.3;;;;;;;4.63;78.20215;93903.05;;;;
2020/01/28 02:58:07;;;;;;;9.550001;5.3;;;;;;;4.63;78.20215;93903.05;;;;
2020/01/28 02:59:07;;;;;;;9.550001;5.3;;;;;;;4.63;78.20215;93903.05;;;;
2020/01/28 03:00:08;;;;;;;9.550001;5.3;;;;;;;4.63;78.20215;93903.05;;;;
2020/01/28 03:01:35;;;;;;;9.550001;5.3;;;;;;;4.63;78.20215;93903.05;;;;
2020/01/28 03:02:35;;;;;;;9.550001;5.3;;;;;;;4.63;78.20215;93903.05;;;;
2020/01/28 03:03:36;;;;;;;9.550001;5.3;;;;;;;4.63;78.20215;93903.05;;;;
2020/01/28 03:04:36;;;;;;;9.550001;5.3;;;;;;;4.63;78.20215;93903.05;;;;
2020/01/28 03:05:37;;;;;;;9.550001;5.3;;;;;;;4.63;78.20215;93903.05;;;;
2020/01/28 03:06:38;;;;;;;10.85;5.2;;;;;;;4.63;77.4209;93924.02;;;;
2020/01/28 03:07:39;;;;;;;10.85;5.2;;;;;;;4.63;77.4209;93924.02;;;;
2020/01/28 03:08:46;;;;;;;10.85;5.2;;;;;;;4.63;77.4209;93924.02;;;;
2020/01/28 03:11:58;;;;;;;9.949999;4.85;;;;;;;4.68;78.06348;93958.87;;;;
2020/01/28 03:13:04;;;;;;;9.949999;4.85;;;;;;;4.68;78.06348;93958.87;;;;
2020/01/28 03:14:10;;;;;;;9.949999;4.85;;;;;;;4.68;78.06348;93958.87;;;;
2020/01/28 03:15:11;;;;;;;9.949999;4.85;;;;;;;4.68;78.06348;93958.87;;;;
2020/01/28 03:16:20;;;;;;;9.949999;4.85;;;;;;;4.68;78.06348;93958.87;;;;
2020/01/28 03:17:21;;;;;;;9.949999;4.85;;;;;;;4.68;78.06348;93958.87;;;;
2020/01/28 03:18:21;;;;;;;9.949999;4.85;;;;;;;4.68;78.06348;93958.87;;;;
2020/01/28 03:19:22;;;;;;;9.949999;4.85;;;;;;;4.68;78.06348;93958.87;;;;
2020/01/28 03:20:22;;;;;;;10.95;4.799999;;;;;;;4.66;77.5957;93981.42;;;;
2020/01/28 03:21:23;;;;;;;10.95;4.799999;;;;;;;4.66;77.5957;93981.42;;;;
2020/01/28 03:22:23;;;;;;;10.95;4.799999;;;;;;;4.66;77.5957;93981.42;;;;
2020/01/28 03:23:24;;;;;;;9.799999;5.1;;;;;;;4.7;78.42676;93980.33;;;;
2020/01/28 03:24:24;;;;;;;9.799999;5.1;;;;;;;4.7;78.42676;93980.33;;;;
2020/01/28 03:25:24;;;;;;;9.799999;5.1;;;;;;;4.7;78.42676;93980.33;;;;
2020/01/28 03:26:25;;;;;;;9.799999;5.1;;;;;;;4.7;78.42676;93980.33;;;;
2020/01/28 03:27:26;;;;;;;9.799999;5.1;;;;;;;4.7;78.42676;93980.33;;;;
2020/01/28 03:28:26;;;;;;;9.799999;5.1;;;;;;;4.7;78.42676;93980.33;;;;
2020/01/28 03:29:26;;;;;;;9.799999;5.1;;;;;;;4.7;78.42676;93980.33;;;;
2020/01/28 03:30:27;;;;;;;9.799999;5.1;;;;;;;4.7;78.42676;93980.33;;;;
2020/01/28 03:31:27;;;;;;;9.799999;5.1;;;;;;;4.7;78.42676;93980.33;;;;
2020/01/28 03:32:28;;;;;;;9.799999;5.1;;;;;;;4.7;78.42676;93980.33;;;;
2020/01/28 03:33:28;;;;;;;10.05;4.749999;;;;;;;4.66;78.25;94008.15;;;;
2020/01/28 03:34:29;;;;;;;10.05;4.749999;;;;;;;4.66;78.25;94008.15;;;;
2020/01/28 03:35:29;;;;;;;10.05;4.749999;;;;;;;4.66;78.25;94008.15;;;;
2020/01/28 03:36:30;;;;;;;10.05;4.749999;;;;;;;4.66;78.25;94008.15;;;;
2020/01/28 03:37:30;;;;;;;10.05;4.749999;;;;;;;4.66;78.25;94008.15;;;;
2020/01/28 03:38:31;;;;;;;10.05;4.749999;;;;;;;4.66;78.25;94008.15;;;;
2020/01/28 03:39:31;;;;;;;10.05;4.749999;;;;;;;4.66;78.25;94008.15;;;;
2020/01/28 03:40:31;;;;;;;10.05;4.749999;;;;;;;4.66;78.25;94008.15;;;;
2020/01/28 03:41:32;;;;;;;10.05;4.749999;;;;;;;4.66;78.25;94008.15;;;;
2020/01/28 03:42:33;;;;;;;10.05;4.749999;;;;;;;4.66;78.25;94008.15;;;;
2020/01/28 03:43:35;;;;;;;10.05;4.749999;;;;;;;4.66;78.25;94008.15;;;;
2020/01/28 03:44:35;;;;;;;10.75;5.05;;;;;;;4.69;78.1709;93980.05;;;;
2020/01/28 03:45:36;;;;;;;10.75;5.05;;;;;;;4.69;78.1709;93980.05;;;;
2020/01/28 03:46:49;;;;;;;10.75;5.05;;;;;;;4.69;78.1709;93980.05;;;;
2020/01/28 03:47:52;;;;;;;10.75;5.05;;;;;;;4.69;78.1709;93980.05;;;;
2020/01/28 03:48:53;;;;;;;10.75;5.05;;;;;;;4.69;78.1709;93980.05;;;;
2020/01/28 03:49:55;;;;;;;10.75;5.05;;;;;;;4.69;78.1709;93980.05;;;;
2020/01/28 03:50:58;;;;;;;10.75;5.05;;;;;;;4.69;78.1709;93980.05;;;;
2020/01/28 03:52:02;;;;;;;10.75;5.05;;;;;;;4.69;78.1709;93980.05;;;;
2020/01/28 03:53:02;;;;;;;10.75;5.05;;;;;;;4.69;78.1709;93980.05;;;;
2020/01/28 03:54:03;;;;;;;10.75;5.05;;;;;;;4.69;78.1709;93980.05;;;;
2020/01/28 03:55:05;;;;;;;9.15;5.149999;;;;;;;4.69;77.98047;94008.12;;;;
2020/01/28 03:56:05;;;;;;;9.15;5.149999;;;;;;;4.69;77.98047;94008.12;;;;
2020/01/28 03:57:06;;;;;;;10.7;5.25;;;;;;;4.76;78.85938;94016.85;;;;
2020/01/28 03:58:07;;;;;;;10.7;5.25;;;;;;;4.76;78.85938;94016.85;;;;
2020/01/28 03:59:07;;;;;;;10.7;5.25;;;;;;;4.76;78.85938;94016.85;;;;
2020/01/28 04:00:10;;;;;;;10.7;5.25;;;;;;;4.76;78.85938;94016.85;;;;
2020/01/28 04:01:23;;;;;;;10.7;5.25;;;;;;;4.76;78.85938;94016.85;;;;
2020/01/28 04:02:24;;;;;;;10.7;5.25;;;;;;;4.76;78.85938;94016.85;;;;
2020/01/28 04:03:24;;;;;;;10.7;5.25;;;;;;;4.76;78.85938;94016.85;;;;
2020/01/28 04:04:25;;;;;;;10.7;5.25;;;;;;;4.76;78.85938;94016.85;;;;
2020/01/28 04:05:26;;;;;;;10.7;5.25;;;;;;;4.76;78.85938;94016.85;;;;
2020/01/28 04:06:26;;;;;;;10.7;5.25;;;;;;;4.76;78.85938;94016.85;;;;
2020/01/28 04:07:27;;;;;;;10.7;5.25;;;;;;;4.76;78.85938;94016.85;;;;
2020/01/28 04:08:29;;;;;;;8.950001;4.7;;;;;;;4.72;78.55566;93981.84;;;;
2020/01/28 04:09:29;;;;;;;8.950001;4.7;;;;;;;4.72;78.55566;93981.84;;;;
2020/01/28 04:10:30;;;;;;;8.950001;4.7;;;;;;;4.72;78.55566;93981.84;;;;
2020/01/28 04:11:30;;;;;;;8.950001;4.7;;;;;;;4.72;78.55566;93981.84;;;;
2020/01/28 04:12:31;;;;;;;8.950001;4.7;;;;;;;4.72;78.55566;93981.84;;;;
2020/01/28 04:13:32;;;;;;;8.950001;4.7;;;;;;;4.72;78.55566;93981.84;;;;
2020/01/28 04:14:33;;;;;;;8.950001;4.7;;;;;;;4.72;78.55566;93981.84;;;;
2020/01/28 04:15:33;;;;;;;8.950001;4.7;;;;;;;4.72;78.55566;93981.84;;;;
2020/01/28 04:16:40;;;;;;;8.950001;4.7;;;;;;;4.72;78.55566;93981.84;;;;
2020/01/28 04:17:49;;;;;;;8.950001;4.7;;;;;;;4.72;78.55566;93981.84;;;;
2020/01/28 04:18:56;;;;;;;10.75;4.7;;;;;;;4.58;78.89844;93953.72;;;;
2020/01/28 04:20:16;;;;;;;10.75;4.7;;;;;;;4.58;78.89844;93953.72;;;;
2020/01/28 04:21:17;;;;;;;10.75;4.7;;;;;;;4.58;78.89844;93953.72;;;;
2020/01/28 04:22:27;;;;;;;10.75;4.7;;;;;;;4.58;78.89844;93953.72;;;;
2020/01/28 04:23:28;;;;;;;10.75;4.7;;;;;;;4.58;78.89844;93953.72;;;;
2020/01/28 04:24:28;;;;;;;10.75;4.7;;;;;;;4.58;78.89844;93953.72;;;;
2020/01/28 04:25:29;;;;;;;10.75;4.7;;;;;;;4.58;78.89844;93953.72;;;;
2020/01/28 04:26:29;;;;;;;10.75;4.7;;;;;;;4.58;78.89844;93953.72;;;;
2020/01/28 04:27:30;;;;;;;10.75;4.7;;;;;;;4.58;78.89844;93953.72;;;;
2020/01/28 04:28:30;;;;;;;10.75;4.7;;;;;;;4.58;78.89844;93953.72;;;;
2020/01/28 04:29:34;;;;;;;11.25;4.55;;;;;;;4.41;78.98438;93927.78;;;;
2020/01/28 04:30:34;;;;;;;11.25;4.55;;;;;;;4.41;78.98438;93927.78;;;;
2020/01/28 04:31:41;;;;;;;8.500001;4;;;;;;;4.43;80.10449;93923.44;;;;
2020/01/28 04:32:45;;;;;;;8.500001;4;;;;;;;4.43;80.10449;93923.44;;;;
2020/01/28 04:33:50;;;;;;;8.500001;4;;;;;;;4.43;80.10449;93923.44;;;;
2020/01/28 04:34:51;;;;;;;8.500001;4;;;;;;;4.43;80.10449;93923.44;;;;
2020/01/28 04:35:53;;;;;;;8.500001;4;;;;;;;4.43;80.10449;93923.44;;;;
2020/01/28 04:36:55;;;;;;;8.500001;4;;;;;;;4.43;80.10449;93923.44;;;;
2020/01/28 04:38:01;;;;;;;8.500001;4;;;;;;;4.43;80.10449;93923.44;;;;
2020/01/28 04:39:03;;;;;;;8.500001;4;;;;;;;4.43;80.10449;93923.44;;;;
2020/01/28 04:40:05;;;;;;;8.500001;4;;;;;;;4.43;80.10449;93923.44;;;;
2020/01/28 04:41:08;;;;;;;8.500001;4;;;;;;;4.43;80.10449;93923.44;;;;
2020/01/28 04:42:11;;;;;;;5.95;3.2;;;;;;;4.35;80.3623;93919.37;;;;
2020/01/28 04:43:19;;;;;;;5.95;3.2;;;;;;;4.35;80.3623;93919.37;;;;
2020/01/28 04:44:44;;;;;;;5.95;3.2;;;;;;;4.35;80.3623;93919.37;;;;
2020/01/28 04:46:06;;;;;;;5.95;3.2;;;;;;;4.35;80.3623;93919.37;;;;
2020/01/28 04:47:27;;;;;;;5.95;3.2;;;;;;;4.35;80.3623;93919.37;;;;
2020/01/28 04:52:49;;;;;;;7.6;3.15;;;;;;;4.28;80.80273;93900.76;;;;
2020/01/28 04:53:50;;;;;;;7.6;3.15;;;;;;;4.28;80.80273;93900.76;;;;
2020/01/28 04:54:53;;;;;;;7.6;3.15;;;;;;;4.28;80.80273;93900.76;;;;
2020/01/28 04:55:55;;;;;;;7.6;3.15;;;;;;;4.28;80.80273;93900.76;;;;
2020/01/28 04:56:56;;;;;;;7.6;3.15;;;;;;;4.28;80.80273;93900.76;;;;
2020/01/28 04:57:58;;;;;;;7.6;3.15;;;;;;;4.28;80.80273;93900.76;;;;
2020/01/28 04:58:59;;;;;;;7.6;3.15;;;;;;;4.28;80.80273;93900.76;;;;
2020/01/28 05:00:00;;;;;;;7.6;3.15;;;;;;;4.28;80.80273;93900.76;;;;
2020/01/28 05:01:00;;;;;;;7.6;3.15;;;;;;;4.28;80.80273;93900.76;;;;
2020/01/28 05:02:01;;;;;;;7.6;3.15;;;;;;;4.28;80.80273;93900.76;;;;
2020/01/28 05:03:01;;;;;;;7.6;3.15;;;;;;;4.28;80.80273;93900.76;;;;
2020/01/28 05:04:02;;;;;;;5.45;2.85;;;;;;;4.36;80.92383;93923.66;;;;
2020/01/28 05:05:02;;;;;;;5.45;2.85;;;;;;;4.36;80.92383;93923.66;;;;
2020/01/28 05:06:03;;;;;;;5.45;2.85;;;;;;;4.36;80.92383;93923.66;;;;
2020/01/28 05:07:03;;;;;;;5.45;2.85;;;;;;;4.36;80.92383;93923.66;;;;
2020/01/28 05:08:04;;;;;;;5.45;2.85;;;;;;;4.36;80.92383;93923.66;;;;
2020/01/28 05:09:04;;;;;;;5.45;2.85;;;;;;;4.36;80.92383;93923.66;;;;
2020/01/28 05:10:05;;;;;;;5.45;2.85;;;;;;;4.36;80.92383;93923.66;;;;
2020/01/28 05:11:05;;;;;;;5.45;2.85;;;;;;;4.36;80.92383;93923.66;;;;
2020/01/28 05:12:06;;;;;;;5.45;2.85;;;;;;;4.36;80.92383;93923.66;;;;
2020/01/28 05:13:06;;;;;;;5.45;2.85;;;;;;;4.36;80.92383;93923.66;;;;
2020/01/28 05:14:07;;;;;;;4.15;2.25;;;;;;;4.56;81.73047;93909.85;;;;
2020/01/28 05:15:08;;;;;;;4.15;2.25;;;;;;;4.56;81.73047;93909.85;;;;
2020/01/28 05:16:08;;;;;;;4.15;2.25;;;;;;;4.56;81.73047;93909.85;;;;
2020/01/28 05:17:08;;;;;;;4.15;2.25;;;;;;;4.56;81.73047;93909.85;;;;
2020/01/28 05:18:09;;;;;;;4.15;2.25;;;;;;;4.56;81.73047;93909.85;;;;
2020/01/28 05:19:09;;;;;;;4.15;2.25;;;;;;;4.56;81.73047;93909.85;;;;
2020/01/28 05:20:10;;;;;;;4.15;2.25;;;;;;;4.56;81.73047;93909.85;;;;
2020/01/28 05:21:11;;;;;;;4.15;2.25;;;;;;;4.56;81.73047;93909.85;;;;
2020/01/28 05:22:11;;;;;;;4.15;2.25;;;;;;;4.56;81.73047;93909.85;;;;
2020/01/28 05:23:21;;;;;;;4.15;2.25;;;;;;;4.56;81.73047;93909.85;;;;
2020/01/28 05:25:17;;;;;;;4.400001;2.35;;;;;;;4.69;82.18652;93876.18;;;;
2020/01/28 05:26:18;;;;;;;4.400001;2.35;;;;;;;4.69;82.18652;93876.18;;;;
2020/01/28 05:27:19;;;;;;;4.400001;2.35;;;;;;;4.69;82.18652;93876.18;;;;
2020/01/28 05:28:19;;;;;;;4.400001;2.35;;;;;;;4.69;82.18652;93876.18;;;;
2020/01/28 05:29:19;;;;;;;4.400001;2.35;;;;;;;4.69;82.18652;93876.18;;;;
2020/01/28 05:30:20;;;;;;;4.400001;2.35;;;;;;;4.69;82.18652;93876.18;;;;
2020/01/28 05:31:38;;;;;;;4.400001;2.35;;;;;;;4.69;82.18652;93876.18;;;;
2020/01/28 05:33:19;;;;;;;4.400001;2.35;;;;;;;4.69;82.18652;93876.18;;;;
2020/01/28 05:34:20;;;;;;;4.400001;2.35;;;;;;;4.69;82.18652;93876.18;;;;
2020/01/28 05:35:21;;;;;;;3.85;2.35;;;;;;;4.82;82.47363;93891.71;;;;
2020/01/28 05:36:21;;;;;;;3.85;2.35;;;;;;;4.82;82.47363;93891.71;;;;
2020/01/28 05:37:22;;;;;;;3.85;2.35;;;;;;;4.82;82.47363;93891.71;;;;
2020/01/28 05:38:22;;;;;;;3.85;2.35;;;;;;;4.82;82.47363;93891.71;;;;
2020/01/28 05:39:23;;;;;;;3.85;2.35;;;;;;;4.82;82.47363;93891.71;;;;
2020/01/28 05:40:23;;;;;;;3.85;2.35;;;;;;;4.82;82.47363;93891.71;;;;
2020/01/28 05:41:23;;;;;;;3.85;2.35;;;;;;;4.82;82.47363;93891.71;;;;
2020/01/28 05:42:24;;;;;;;3.85;2.35;;;;;;;4.82;82.47363;93891.71;;;;
2020/01/28 05:43:24;;;;;;;3.85;2.35;;;;;;;4.82;82.47363;93891.71;;;;
2020/01/28 05:44:25;;;;;;;3.85;2.35;;;;;;;4.82;82.47363;93891.71;;;;
2020/01/28 05:45:25;;;;;;;3.85;2.35;;;;;;;4.82;82.47363;93891.71;;;;
2020/01/28 05:46:26;;;;;;;4.65;2.75;;;;;;;4.8;82.64844;93889.65;;;;
2020/01/28 05:47:26;;;;;;;4.65;2.75;;;;;;;4.8;82.64844;93889.65;;;;
2020/01/28 05:48:27;;;;;;;4.65;2.75;;;;;;;4.8;82.64844;93889.65;;;;
2020/01/28 05:49:27;;;;;;;4.65;2.75;;;;;;;4.8;82.64844;93889.65;;;;
2020/01/28 05:50:28;;;;;;;4.65;2.75;;;;;;;4.8;82.64844;93889.65;;;;
2020/01/28 05:51:28;;;;;;;4.65;2.75;;;;;;;4.8;82.64844;93889.65;;;;
2020/01/28 05:52:29;;;;;;;4.65;2.75;;;;;;;4.8;82.64844;93889.65;;;;
2020/01/28 05:53:29;;;;;;;4.65;2.75;;;;;;;4.8;82.64844;93889.65;;;;
2020/01/28 05:54:30;;;;;;;4.65;2.75;;;;;;;4.8;82.64844;93889.65;;;;
2020/01/28 05:55:30;;;;;;;4.65;2.75;;;;;;;4.8;82.64844;93889.65;;;;
2020/01/28 05:56:31;;;;;;;6.05;3.2;;;;;;;4.71;82.34863;93867.41;;;;
2020/01/28 05:57:31;;;;;;;6.05;3.2;;;;;;;4.71;82.34863;93867.41;;;;
2020/01/28 05:58:32;;;;;;;6.05;3.2;;;;;;;4.71;82.34863;93867.41;;;;
2020/01/28 05:59:33;;;;;;;6.05;3.2;;;;;;;4.71;82.34863;93867.41;;;;
2020/01/28 06:05:55;;;;;;;6.05;3.2;;;;;;;4.71;82.34863;93867.41;;;;
2020/01/28 06:07:15;;;;;;;5.349999;2.6;;;;;;;4.48;82.63965;93855.41;;;;
2020/01/28 06:08:18;;;;;;;5.349999;2.6;;;;;;;4.48;82.63965;93855.41;;;;
2020/01/28 06:09:19;;;;;;;5.349999;2.6;;;;;;;4.48;82.63965;93855.41;;;;
2020/01/28 06:10:19;;;;;;;5.349999;2.6;;;;;;;4.48;82.63965;93855.41;;;;
2020/01/28 06:11:19;;;;;;;5.349999;2.6;;;;;;;4.48;82.63965;93855.41;;;;
2020/01/28 06:12:20;;;;;;;5.349999;2.6;;;;;;;4.48;82.63965;93855.41;;;;
2020/01/28 06:13:20;;;;;;;5.349999;2.6;;;;;;;4.48;82.63965;93855.41;;;;
2020/01/28 06:14:21;;;;;;;5.349999;2.6;;;;;;;4.48;82.63965;93855.41;;;;
2020/01/28 06:15:21;;;;;;;5.349999;2.6;;;;;;;4.48;82.63965;93855.41;;;;
2020/01/28 06:16:22;;;;;;;5.349999;2.6;;;;;;;4.48;82.63965;93855.41;;;;